createdAt,value
2023-11-13T00:00:21.203Z,19.12
2023-11-13T00:03:23.689Z,18.37
2023-11-13T00:06:26.473Z,12.52
2023-11-13T00:09:28.691Z,11.68
2023-11-13T00:12:30.986Z,11.00
2023-11-13T00:15:33.336Z,7.28
2023-11-13T00:18:35.661Z,8.57
2023-11-13T00:21:37.941Z,14.57
2023-11-13T00:24:40.393Z,10.25
2023-11-13T00:27:42.662Z,13.85
2023-11-13T00:30:44.931Z,9.60
2023-11-13T00:33:50.255Z,11.65
2023-11-13T00:36:52.886Z,15.05
2023-11-13T00:39:55.113Z,10.38
2023-11-13T00:42:57.400Z,6.75
2023-11-13T00:45:59.727Z,5.75
2023-11-13T00:49:02.079Z,4.50
2023-11-13T00:52:04.908Z,4.78
2023-11-13T00:55:07.765Z,5.60
2023-11-13T00:58:10.159Z,8.00
2023-11-13T01:01:15.116Z,11.43
2023-11-13T01:04:17.485Z,7.82
2023-11-13T01:07:19.778Z,6.55
2023-11-13T01:10:22.412Z,5.30
2023-11-13T01:13:24.805Z,4.57
2023-11-13T01:16:27.206Z,5.07
2023-11-13T01:19:32.001Z,5.32
2023-11-13T01:22:34.356Z,4.90
2023-11-13T01:25:36.580Z,4.93
2023-11-13T01:28:38.835Z,3.75
2023-11-13T01:31:41.009Z,3.25
2023-11-13T01:34:43.542Z,4.28
2023-11-13T01:37:47.175Z,3.05
2023-11-13T01:40:52.658Z,3.35
2023-11-13T01:43:54.866Z,3.95
2023-11-13T01:46:57.192Z,3.45
2023-11-13T01:49:59.925Z,3.55
2023-11-13T01:53:03.015Z,2.40
2023-11-13T01:56:05.717Z,3.97
2023-11-13T01:59:08.278Z,4.05
2023-11-13T02:02:10.747Z,6.10
2023-11-13T02:05:13.914Z,39.50
2023-11-13T02:08:16.144Z,32.53
2023-11-13T02:11:19.146Z,32.97
2023-11-13T02:14:22.002Z,30.58
2023-11-13T02:17:24.183Z,15.57
2023-11-13T02:20:26.456Z,16.87
2023-11-13T02:23:28.665Z,16.75
2023-11-13T02:26:30.922Z,16.92
2023-11-13T02:29:33.158Z,14.20
2023-11-13T02:32:35.622Z,10.50
2023-11-13T02:35:37.798Z,11.80
2023-11-13T02:38:39.988Z,14.48
2023-11-13T02:41:42.164Z,9.55
2023-11-13T02:44:44.442Z,7.80
2023-11-13T02:47:46.687Z,11.05
2023-11-13T02:50:51.672Z,9.00
2023-11-13T02:53:56.106Z,9.45
2023-11-13T02:56:58.291Z,7.47
2023-11-13T03:00:00.528Z,9.05
2023-11-13T03:03:02.864Z,9.13
2023-11-13T03:06:05.568Z,7.00
2023-11-13T03:09:07.755Z,4.72
2023-11-13T03:12:10.338Z,8.50
2023-11-13T03:15:12.540Z,3.75
2023-11-13T03:18:16.225Z,7.47
2023-11-13T03:21:18.458Z,8.60
2023-11-13T03:24:20.641Z,10.13
2023-11-13T03:27:22.875Z,5.60
2023-11-13T03:30:25.086Z,8.52
2023-11-13T03:33:27.523Z,3.12
2023-11-13T03:36:29.728Z,8.82
2023-11-13T03:39:31.943Z,6.47
2023-11-13T03:42:34.228Z,4.95
2023-11-13T03:45:36.447Z,5.68
2023-11-13T03:48:38.676Z,6.85
2023-11-13T03:51:40.851Z,4.22
2023-11-13T03:54:43.028Z,4.43
2023-11-13T03:57:45.258Z,4.95
2023-11-13T04:00:47.625Z,4.22
2023-11-13T04:03:49.961Z,5.95
2023-11-13T04:06:52.171Z,5.55
2023-11-13T04:09:54.419Z,13.75
2023-11-13T04:12:56.693Z,16.08
2023-11-13T04:16:01.976Z,10.30
2023-11-13T04:19:04.821Z,8.02
2023-11-13T04:22:07.877Z,10.68
2023-11-13T04:25:10.666Z,9.77
2023-11-13T04:28:15.714Z,10.30
2023-11-13T04:31:18.033Z,7.78
2023-11-13T04:34:20.303Z,6.30
2023-11-13T04:37:22.550Z,6.65
2023-11-13T04:40:26.037Z,7.15
2023-11-13T04:43:28.408Z,3.62
2023-11-13T04:46:30.732Z,6.35
2023-11-13T04:49:33.344Z,4.87
2023-11-13T04:52:35.605Z,5.18
2023-11-13T04:55:38.672Z,6.03
2023-11-13T04:58:41.030Z,7.53
2023-11-13T05:01:43.429Z,3.72
2023-11-13T05:04:46.718Z,3.75
2023-11-13T05:07:49.023Z,5.55
2023-11-13T05:10:52.092Z,3.25
2023-11-13T05:13:54.767Z,4.60
2023-11-13T05:16:57.648Z,5.15
2023-11-13T05:20:01.561Z,3.58
2023-11-13T05:23:03.756Z,4.57
2023-11-13T05:26:06.226Z,3.05
2023-11-13T05:29:09.113Z,4.55
2023-11-13T05:32:11.462Z,5.00
2023-11-13T05:35:13.753Z,7.53
2023-11-13T05:38:15.952Z,4.57
2023-11-13T05:41:18.208Z,5.10
2023-11-13T05:44:20.415Z,3.62
2023-11-13T05:47:22.750Z,4.78
2023-11-13T05:50:25.299Z,4.35
2023-11-13T05:53:28.066Z,5.75
2023-11-13T05:56:30.286Z,3.58
2023-11-13T05:59:32.511Z,5.55
2023-11-13T06:02:34.846Z,4.10
2023-11-13T06:05:37.209Z,2.87
2023-11-13T06:08:39.432Z,4.50
2023-11-13T06:11:41.911Z,4.10
2023-11-13T06:14:44.915Z,5.57
2023-11-13T06:17:47.470Z,4.55
2023-11-13T06:20:50.094Z,4.43
2023-11-13T06:23:52.371Z,4.65
2023-11-13T06:26:55.158Z,4.50
2023-11-13T06:29:57.470Z,5.90
2023-11-13T06:32:59.737Z,13.57
2023-11-13T06:36:03.661Z,11.95
2023-11-13T06:39:08.089Z,7.07
2023-11-13T06:42:10.633Z,8.25
2023-11-13T06:45:13.305Z,6.62
2023-11-13T06:48:15.706Z,7.30
2023-11-13T06:51:18.172Z,5.55
2023-11-13T06:54:21.410Z,8.25
2023-11-13T06:57:26.152Z,4.53
2023-11-13T07:00:28.468Z,8.45
2023-11-13T07:03:31.045Z,6.18
2023-11-13T07:06:33.237Z,6.97
2023-11-13T07:09:35.515Z,7.57
2023-11-13T07:12:38.685Z,9.25
2023-11-13T07:15:41.349Z,8.57
2023-11-13T07:18:44.171Z,9.80
2023-11-13T07:21:46.401Z,10.27
2023-11-13T07:24:48.617Z,7.40
2023-11-13T07:27:50.827Z,10.23
2023-11-13T07:30:53.052Z,9.93
2023-11-13T07:33:56.038Z,10.20
2023-11-13T07:36:58.310Z,7.97
2023-11-13T07:40:00.771Z,9.98
2023-11-13T07:43:04.191Z,10.90
2023-11-13T07:46:08.954Z,8.70
2023-11-13T07:49:12.748Z,9.65
2023-11-13T07:52:16.400Z,9.07
2023-11-13T07:55:18.925Z,7.25
2023-11-13T07:58:21.290Z,12.07
2023-11-13T08:01:25.735Z,8.30
2023-11-13T08:04:28.092Z,13.57
2023-11-13T08:07:30.902Z,17.27
2023-11-13T08:10:33.566Z,7.25
2023-11-13T08:13:36.445Z,9.68
2023-11-13T08:16:38.892Z,5.37
2023-11-13T08:19:43.065Z,12.25
2023-11-13T08:22:49.024Z,6.75
2023-11-13T08:25:52.250Z,14.52
2023-11-13T08:28:55.734Z,7.05
2023-11-13T08:31:57.987Z,14.73
2023-11-13T08:35:00.268Z,6.95
2023-11-13T08:38:03.579Z,5.62
2023-11-13T08:41:06.030Z,5.97
2023-11-13T08:44:08.675Z,6.95
2023-11-13T08:47:11.508Z,5.43
2023-11-13T08:50:14.235Z,6.35
2023-11-13T08:53:16.475Z,9.70
2023-11-13T08:56:18.778Z,7.70
2023-11-13T08:59:21.225Z,6.80
2023-11-13T09:02:27.147Z,5.55
2023-11-13T09:05:29.721Z,3.75
2023-11-13T09:08:32.726Z,7.75
2023-11-13T09:11:34.905Z,6.10
2023-11-13T09:14:37.102Z,6.82
2023-11-13T09:17:46.931Z,9.38
2023-11-13T09:20:49.507Z,5.18
2023-11-13T09:23:51.749Z,6.18
2023-11-13T09:26:53.961Z,7.40
2023-11-13T09:29:56.135Z,8.63
2023-11-13T09:32:58.693Z,6.78
2023-11-13T11:22:15.202Z,8.88
2023-11-13T11:25:39.975Z,8.10
2023-11-13T11:28:49.678Z,11.35
2023-11-13T11:32:15.416Z,24.27
2023-11-13T11:35:43.882Z,7.62
2023-11-13T11:38:46.190Z,18.95
2023-11-13T11:41:55.953Z,9.88
2023-11-13T11:45:08.316Z,11.25
2023-11-13T11:48:13.218Z,6.25
2023-11-13T11:51:22.938Z,7.82
2023-11-13T11:57:29.591Z,11.18
2023-11-13T12:00:53.793Z,6.40
2023-11-13T12:03:56.204Z,7.15
2023-11-13T12:07:02.575Z,30.90
2023-11-13T12:10:43.841Z,17.70
2023-11-13T12:13:46.941Z,16.85
2023-11-13T12:16:52.649Z,12.98
2023-11-13T12:20:03.585Z,45.92
2023-11-13T12:23:17.059Z,14.85
2023-11-13T12:26:19.976Z,30.70
2023-11-13T12:29:23.940Z,12.45
2023-11-13T12:32:28.821Z,8.73
2023-11-13T12:35:36.677Z,7.93
2023-11-13T12:38:47.662Z,8.75
2023-11-13T12:41:54.102Z,11.77
2023-11-13T12:45:07.274Z,8.48
2023-11-13T12:48:15.159Z,5.90
2023-11-13T12:51:17.884Z,13.23
2023-11-13T12:54:21.470Z,8.48
2023-11-13T12:57:26.142Z,8.55
2023-11-13T13:00:31.363Z,9.18
2023-11-13T13:03:34.046Z,12.82
2023-11-13T13:06:40.031Z,10.15
2023-11-13T13:09:42.459Z,9.10
2023-11-13T13:12:49.811Z,11.52
2023-11-13T13:15:52.070Z,7.47
2023-11-13T13:18:54.427Z,9.95
2023-11-13T13:21:56.721Z,13.25
2023-11-13T13:24:58.967Z,10.32
2023-11-13T13:28:04.392Z,11.23
2023-11-13T13:31:07.158Z,12.75
2023-11-13T13:34:09.834Z,11.32
2023-11-13T13:37:13.141Z,12.63
2023-11-13T13:40:18.229Z,8.77
2023-11-13T13:43:20.710Z,8.85
2023-11-13T13:46:23.601Z,12.55
2023-11-13T13:49:27.099Z,11.60
2023-11-13T13:52:31.553Z,13.70
2023-11-13T13:55:35.003Z,7.87
2023-11-13T13:58:38.936Z,13.75
2023-11-13T14:01:41.720Z,11.88
2023-11-13T14:04:44.109Z,14.00
2023-11-13T14:07:48.124Z,15.45
2023-11-13T14:10:52.763Z,12.05
2023-11-13T14:13:57.711Z,15.13
2023-11-13T14:17:00.042Z,14.63
2023-11-13T14:20:02.368Z,11.65
2023-11-13T14:23:04.724Z,13.32
2023-11-13T14:26:07.409Z,8.25
2023-11-13T14:29:13.406Z,14.18
2023-11-13T14:32:16.132Z,14.50
2023-11-13T14:35:19.724Z,15.40
2023-11-13T14:38:21.974Z,18.27
2023-11-13T14:41:26.773Z,16.48
2023-11-13T14:44:30.192Z,13.35
2023-11-13T14:47:50.255Z,12.93
2023-11-13T14:50:54.045Z,13.25
2023-11-13T14:53:56.516Z,11.95
2023-11-13T14:56:58.981Z,13.48
2023-11-13T15:00:01.674Z,54.20
2023-11-13T15:03:04.998Z,61.42
2023-11-13T15:06:07.998Z,29.35
2023-11-13T15:09:10.838Z,19.85
2023-11-13T15:12:13.146Z,341.27
2023-11-13T15:15:17.439Z,113.57
2023-11-13T15:18:20.020Z,284.55
2023-11-13T15:21:22.248Z,264.85
2023-11-13T15:24:30.008Z,289.63
2023-11-13T15:27:33.287Z,120.43
2023-11-13T15:30:35.633Z,97.22
2023-11-13T15:33:38.590Z,58.10
2023-11-13T15:36:41.017Z,55.60
2023-11-13T15:39:44.962Z,27.00
2023-11-13T15:42:47.302Z,72.82
2023-11-13T15:45:49.537Z,53.87
2023-11-13T15:48:51.817Z,39.15
2023-11-13T15:51:54.083Z,73.32
2023-11-13T15:54:56.368Z,30.42
2023-11-13T15:57:58.914Z,28.12
2023-11-13T16:01:05.663Z,19.05
2023-11-13T16:04:08.266Z,17.12
2023-11-13T16:07:11.591Z,24.65
2023-11-13T16:10:15.731Z,17.10
2023-11-13T16:13:20.504Z,12.63
2023-11-13T16:16:23.232Z,14.10
2023-11-13T16:19:25.748Z,17.83
2023-11-13T16:22:28.153Z,17.98
2023-11-13T16:25:31.044Z,30.27
2023-11-13T16:28:34.066Z,28.55
2023-11-13T16:31:36.854Z,18.20
2023-11-13T16:34:40.051Z,14.57
2023-11-13T16:37:42.397Z,16.20
2023-11-13T16:40:45.267Z,8.55
2023-11-13T16:43:47.479Z,27.95
2023-11-13T16:46:49.890Z,21.52
2023-11-13T16:50:17.405Z,13.50
2023-11-13T16:53:20.532Z,19.23
2023-11-13T16:56:23.258Z,23.23
2023-11-13T16:59:30.725Z,19.25
2023-11-13T17:02:34.747Z,22.05
2023-11-13T17:05:39.078Z,12.48
2023-11-13T17:08:41.414Z,19.67
2023-11-13T17:11:45.206Z,44.35
2023-11-13T17:14:47.597Z,31.10
2023-11-13T17:17:49.930Z,56.20
2023-11-13T17:20:55.543Z,33.20
2023-11-13T17:23:58.592Z,30.45
2023-11-13T17:27:00.890Z,17.77
2023-11-13T17:30:07.998Z,15.43
2023-11-13T17:33:10.462Z,21.62
2023-11-13T17:36:12.770Z,20.12
2023-11-13T17:39:15.754Z,18.70
2023-11-13T17:42:18.050Z,22.48
2023-11-13T17:45:21.019Z,44.17
2023-11-13T17:48:23.438Z,65.70
2023-11-13T17:51:29.012Z,40.42
2023-11-13T17:54:31.444Z,32.38
2023-11-13T17:57:34.352Z,27.85
2023-11-13T18:00:37.701Z,29.30
2023-11-13T18:03:40.559Z,47.88
2023-11-13T18:06:44.471Z,64.07
2023-11-13T18:09:48.211Z,31.08
2023-11-13T18:12:51.104Z,24.87
2023-11-13T18:15:53.458Z,26.45
2023-11-13T18:18:55.823Z,39.25
2023-11-13T18:21:59.627Z,19.77
2023-11-13T18:25:02.411Z,16.12
2023-11-13T18:28:04.857Z,18.27
2023-11-13T18:31:08.446Z,13.02
2023-11-13T18:34:13.917Z,11.82
2023-11-13T18:37:16.863Z,13.80
2023-11-13T18:40:19.450Z,11.23
2023-11-13T18:43:22.665Z,17.75
2023-11-13T18:46:45.101Z,12.57
2023-11-13T18:49:48.904Z,13.32
2023-11-13T18:52:51.378Z,10.68
2023-11-13T18:55:58.502Z,14.00
2023-11-13T18:59:04.550Z,16.62
2023-11-13T19:02:13.626Z,11.20
2023-11-13T19:05:18.708Z,10.50
2023-11-13T19:08:21.006Z,18.48
2023-11-13T19:11:23.270Z,14.52
2023-11-13T19:14:29.528Z,15.65
2023-11-13T19:17:35.022Z,16.12
2023-11-13T19:20:58.144Z,17.62
2023-11-13T19:24:02.698Z,17.40
2023-11-13T19:27:05.074Z,19.48
2023-11-13T19:30:10.198Z,15.40
2023-11-13T19:33:12.938Z,11.70
2023-11-13T19:36:24.300Z,11.32
2023-11-13T19:43:31.405Z,15.23
2023-11-13T19:46:34.403Z,13.32
2023-11-13T19:49:37.310Z,18.87
2023-11-13T19:52:47.183Z,9.32
2023-11-13T19:55:52.889Z,17.42
2023-11-13T19:58:55.789Z,12.10
2023-11-13T20:02:00.331Z,10.75
2023-11-13T20:05:02.832Z,11.05
2023-11-13T20:08:06.281Z,16.60
2023-11-13T20:11:10.617Z,12.77
2023-11-13T20:14:12.942Z,11.93
2023-11-13T20:17:15.309Z,13.90
2023-11-13T20:20:20.501Z,10.63
2023-11-13T20:23:22.814Z,9.75
2023-11-13T20:26:25.349Z,11.82
2023-11-13T20:29:28.213Z,13.38
2023-11-13T20:32:30.829Z,12.93
2023-11-13T20:35:53.901Z,9.57
2023-11-13T20:38:57.226Z,9.57
2023-11-13T20:42:00.794Z,18.85
2023-11-13T20:45:05.788Z,12.35
2023-11-13T20:48:09.663Z,12.00
2023-11-13T20:51:12.526Z,22.20
2023-11-13T20:54:15.689Z,17.23
2023-11-13T20:57:18.519Z,14.25
2023-11-13T21:00:21.529Z,15.65
2023-11-13T21:03:47.735Z,12.85
2023-11-13T21:06:51.112Z,17.15
2023-11-13T21:09:53.599Z,24.08
2023-11-13T21:12:58.069Z,30.40
2023-11-13T21:16:01.128Z,20.98
2023-11-13T21:19:03.429Z,18.70
2023-11-13T21:22:05.970Z,12.98
2023-11-13T21:25:10.554Z,13.95
2023-11-13T21:28:12.961Z,14.70
2023-11-13T21:31:17.178Z,13.48
2023-11-13T21:34:21.919Z,11.23
2023-11-13T21:37:25.153Z,11.20
2023-11-13T21:40:27.483Z,12.68
2023-11-13T21:43:31.416Z,15.77
2023-11-13T21:46:34.277Z,10.05
2023-11-13T21:49:36.646Z,12.70
2023-11-13T21:52:39.444Z,15.30
2023-11-13T21:55:41.951Z,12.68
2023-11-13T21:58:44.277Z,9.10
2023-11-13T22:01:47.407Z,8.93
2023-11-13T22:04:50.430Z,10.93
2023-11-13T22:07:53.442Z,13.48
2023-11-13T22:11:00.349Z,12.35
2023-11-13T22:14:04.253Z,7.80
2023-11-13T22:17:08.613Z,10.40
2023-11-13T22:20:49.256Z,8.68
2023-11-13T22:24:11.870Z,8.63
2023-11-13T22:27:43.030Z,9.45
2023-11-13T22:31:07.352Z,8.60
2023-11-13T22:34:29.348Z,9.85
2023-11-13T22:37:31.622Z,9.68
2023-11-13T22:40:33.946Z,11.20
2023-11-13T22:43:36.258Z,9.50
2023-11-13T22:46:38.550Z,8.68
2023-11-13T22:49:41.831Z,7.85
2023-11-13T22:52:45.342Z,8.43
2023-11-13T22:55:47.628Z,9.90
2023-11-13T22:58:53.221Z,14.30
2023-11-13T23:01:55.880Z,10.25
2023-11-13T23:05:01.418Z,8.88
2023-11-13T23:08:05.500Z,8.32
2023-11-13T23:11:08.306Z,8.63
2023-11-13T23:14:10.536Z,11.90
2023-11-13T23:17:12.852Z,11.07
2023-11-13T23:20:15.564Z,13.13
2023-11-13T23:23:17.781Z,9.07
2023-11-13T23:26:21.025Z,8.77
2023-11-13T23:29:23.280Z,9.55
2023-11-13T23:32:25.576Z,7.55
2023-11-13T23:35:27.996Z,6.90
2023-11-13T23:38:30.189Z,11.60
2023-11-13T23:41:32.483Z,7.93
2023-11-13T23:44:34.670Z,5.00
2023-11-13T23:47:37.566Z,13.32
2023-11-13T23:50:41.822Z,10.68
2023-11-13T23:53:44.052Z,8.40
2023-11-13T23:56:46.275Z,7.05
2023-11-13T23:59:48.530Z,8.23
